Time;durP1;ratioP1;P1;durP2;ratioP2;P2;SDS_P1;SDS_P2;PMS_P1;PMS_P2;Temp;Humidity;BMP_temperature;BMP_pressure;BME280_temperature;BME280_humidity;BME280_pressure;Samples;Min_cycle;Max_cycle;Signal;HPM_P1;HPM_P2
2023/08/28 00:00:42;;;;;;;1.25;1.10;;;20.10;85.20;;;;;;5050726;28;20166;-29
2023/08/28 00:03:09;;;;;;;1.48;1.23;;;;;;;;;;5058217;28;20123;-31
2023/08/28 00:05:36;;;;;;;2.30;1.23;;;;;;;;;;5070569;28;20398;-30
2023/08/28 00:08:04;;;;;;;1.38;1.13;;;20.00;84.90;;;;;;5070359;28;20151;-30
2023/08/28 00:10:32;;;;;;;1.38;1.08;;;20.60;85.20;;;;;;5070551;28;20045;-30
2023/08/28 00:12:59;;;;;;;1.45;1.10;;;;;;;;;;5068423;28;20131;-31
2023/08/28 00:15:27;;;;;;;1.10;1.00;;;;;;;;;;5070145;28;20541;-30
2023/08/28 00:17:54;;;;;;;2.33;1.20;;;;;;;;;;5070494;28;20148;-31
2023/08/28 00:20:21;;;;;;;1.40;1.05;;;;;;;;;;5070289;28;20048;-30
2023/08/28 00:22:48;;;;;;;1.23;1.10;;;19.80;83.30;;;;;;5069460;28;20052;-31
2023/08/28 00:25:14;;;;;;;1.48;1.10;;;20.30;76.50;;;;;;5068892;28;20584;-30
2023/08/28 00:27:42;;;;;;;2.20;1.20;;;20.10;85.00;;;;;;5070490;28;20128;-29
2023/08/28 00:30:10;;;;;;;2.45;1.10;;;20.00;72.10;;;;;;5070041;28;20586;-29
2023/08/28 00:32:38;;;;;;;1.48;1.10;;;;;;;;;;5066665;28;20136;-31
2023/08/28 00:35:05;;;;;;;2.78;1.20;;;20.10;67.70;;;;;;5049930;28;20103;-34
2023/08/28 00:37:32;;;;;;;1.58;1.20;;;19.90;85.40;;;;;;5064467;28;20055;-30
2023/08/28 00:39:59;;;;;;;2.20;1.30;;;;;;;;;;5073815;28;20131;-30
2023/08/28 00:42:26;;;;;;;1.50;1.00;;;;;;;;;;5073028;28;20048;-30
2023/08/28 00:44:54;;;;;;;1.10;1.00;;;20.30;70.20;;;;;;5073982;28;20131;-29
2023/08/28 00:47:21;;;;;;;2.28;1.10;;;;;;;;;;5073745;28;20131;-30
2023/08/28 00:49:48;;;;;;;3.78;1.23;;;20.20;82.30;;;;;;5073988;28;20123;-29
2023/08/28 00:52:15;;;;;;;1.67;1.20;;;;;;;;;;5073249;28;20055;-30
2023/08/28 00:54:42;;;;;;;1.50;1.20;;;20.50;85.20;;;;;;5073228;28;20482;-30
2023/08/28 00:57:09;;;;;;;1.25;1.15;;;20.80;85.60;;;;;;5073661;28;20123;-30
2023/08/28 00:59:36;;;;;;;1.88;1.10;;;20.40;73.60;;;;;;5073709;28;20055;-29
2023/08/28 01:02:04;;;;;;;1.10;1.00;;;20.10;67.70;;;;;;5073178;28;20132;-29
2023/08/28 01:04:31;;;;;;;1.30;1.10;;;19.90;85.20;;;;;;5054949;28;20045;-31
2023/08/28 01:07:02;;;;;;;2.30;1.30;;;19.90;71.70;;;;;;5053304;28;20048;-30
2023/08/28 01:09:33;;;;;;;2.00;1.20;;;20.00;67.70;;;;;;5060606;28;20083;-30
2023/08/28 01:12:03;;;;;;;2.80;1.20;;;20.00;67.70;;;;;;5073544;28;20052;-30
2023/08/28 01:14:30;;;;;;;1.60;1.10;;;;;;;;;;5072145;28;20044;-31
2023/08/28 01:17:08;;;;;;;1.20;1.10;;;20.30;68.50;;;;;;5073138;28;20418;-30
2023/08/28 01:19:36;;;;;;;1.23;1.13;;;20.10;83.30;;;;;;5073438;28;20076;-30
2023/08/28 01:22:11;;;;;;;1.40;1.10;;;19.90;78.40;;;;;;5073087;28;20139;-30
2023/08/28 01:24:39;;;;;;;1.73;1.15;;;20.00;67.80;;;;;;5054177;28;20497;-29
2023/08/28 01:27:07;;;;;;;2.60;1.20;;;20.00;67.80;;;;;;5052878;28;20131;-32
2023/08/28 01:29:34;;;;;;;1.50;1.05;;;;;;;;;;5053042;28;20083;-30
2023/08/28 01:32:02;;;;;;;2.65;1.10;;;;;;;;;;5052996;28;20135;-30
2023/08/28 01:34:28;;;;;;;1.10;1.00;;;20.60;74.50;;;;;;5069808;28;20051;-30
2023/08/28 01:36:58;;;;;;;2.55;1.25;;;20.00;67.80;;;;;;5072710;28;20448;-29
2023/08/28 01:39:36;;;;;;;1.80;1.10;;;20.00;67.80;;;;;;5072602;28;20136;-32
2023/08/28 01:42:03;;;;;;;1.38;0.98;;;;;;;;;;5059262;28;20148;-32
2023/08/28 01:44:31;;;;;;;2.13;1.23;;;19.80;85.40;;;;;;5052186;28;20537;-31
2023/08/28 01:46:58;;;;;;;1.92;1.00;;;;;;;;;;5052857;28;20049;-30
2023/08/28 01:49:28;;;;;;;1.30;1.02;;;19.90;67.80;;;;;;5052491;28;20051;-31
2023/08/28 01:51:55;;;;;;;1.67;1.20;;;;;;;;;;5065358;28;20128;-34
2023/08/28 01:54:22;;;;;;;1.58;1.00;;;;;;;;;;5072489;28;20421;-35
2023/08/28 01:56:49;;;;;;;1.70;0.93;;;;;;;;;;5072392;28;20102;-36
2023/08/28 01:59:16;;;;;;;1.08;0.98;;;19.50;85.30;;;;;;5072589;28;20139;-38
2023/08/28 02:01:44;;;;;;;2.30;1.30;;;20.00;67.90;;;;;;5063514;28;20608;-32
2023/08/28 02:04:11;;;;;;;1.88;1.20;;;20.40;74.80;;;;;;5052196;28;20128;-36
2023/08/28 02:06:38;;;;;;;1.30;1.02;;;20.20;76.70;;;;;;5066673;28;20561;-35
2023/08/28 02:09:05;;;;;;;1.33;1.20;;;19.80;70.00;;;;;;5072158;28;20131;-35
2023/08/28 02:11:32;;;;;;;1.40;1.10;;;;;;;;;;5071668;28;20092;-32
2023/08/28 02:13:59;;;;;;;2.17;1.15;;;;;;;;;;5071897;28;20070;-32
2023/08/28 02:16:27;;;;;;;1.30;1.10;;;;;;;;;;5072284;28;20124;-31
2023/08/28 02:18:55;;;;;;;2.15;1.20;;;19.90;67.90;;;;;;5072010;28;20064;-34
2023/08/28 02:21:22;;;;;;;1.52;1.10;;;;;;;;;;5052726;28;20057;-39
2023/08/28 02:23:49;;;;;;;1.52;1.00;;;;;;;;;;5051728;28;20141;-34
2023/08/28 02:26:16;;;;;;;1.30;1.10;;;;;;;;;;5052121;28;20124;-33
2023/08/28 02:28:43;;;;;;;1.50;1.25;;;20.30;85.80;;;;;;5051864;28;20136;-36
2023/08/28 02:31:10;;;;;;;1.20;1.10;;;;;;;;;;5068809;28;20123;-34
2023/08/28 02:33:36;;;;;;;1.40;1.20;;;18.80;72.90;;;;;;5071388;28;20127;-34
2023/08/28 02:36:05;;;;;;;3.80;1.35;;;19.90;67.80;;;;;;5070940;28;20132;-35
2023/08/28 02:38:31;;;;;;;2.83;1.30;;;19.60;85.10;;;;;;5071814;28;20147;-35
2023/08/28 02:41:03;;;;;;;2.25;1.13;;;19.90;67.80;;;;;;5070536;28;20139;-31
2023/08/28 02:43:30;;;;;;;1.15;1.05;;;19.80;74.70;;;;;;5071456;28;20132;-37
2023/08/28 02:45:57;;;;;;;2.15;1.13;;;;;;;;;;5071682;28;20127;-34
2023/08/28 02:48:23;;;;;;;3.53;1.20;;;19.90;85.50;;;;;;5071656;28;20076;-38
2023/08/28 02:50:50;;;;;;;2.97;1.30;;;20.80;85.80;;;;;;5059838;28;20120;-34
2023/08/28 02:53:18;;;;;;;1.60;1.20;;;19.90;76.20;;;;;;5052800;28;20131;-33
2023/08/28 02:56:14;;;;;;;1.60;1.20;;;20.00;79.30;;;;;;5051430;28;20131;-36
2023/08/28 02:58:41;;;;;;;1.30;1.20;;;19.80;72.20;;;;;;5040717;28;20565;-36
2023/08/28 03:01:09;;;;;;;1.77;1.23;;;;;;;;;;5059765;28;20128;-34
2023/08/28 03:03:35;;;;;;;1.23;1.08;;;20.10;74.10;;;;;;5071130;28;20127;-36
2023/08/28 03:06:02;;;;;;;1.98;1.20;;;;;;;;;;5071239;28;20135;-37
2023/08/28 03:08:30;;;;;;;1.50;1.33;;;19.80;67.80;;;;;;5070860;28;20132;-33
2023/08/28 03:10:58;;;;;;;3.15;1.10;;;;;;;;;;5070417;28;20131;-33
2023/08/28 03:13:24;;;;;;;1.65;1.20;;;19.70;85.20;;;;;;5070772;28;20557;-38
2023/08/28 03:15:52;;;;;;;1.30;1.10;;;;;;;;;;5070989;28;20123;-38
2023/08/28 03:18:19;;;;;;;1.75;1.23;;;19.70;85.20;;;;;;5071165;28;20083;-38
2023/08/28 03:20:46;;;;;;;2.08;1.20;;;;;;;;;;5058057;28;20080;-34
2023/08/28 03:23:13;;;;;;;3.08;1.30;;;19.70;83.60;;;;;;5067355;28;20135;-36
2023/08/28 03:25:41;;;;;;;1.20;1.10;;;19.50;85.40;;;;;;5069521;28;20044;-39
2023/08/28 03:28:07;;;;;;;1.73;1.40;;;18.70;74.00;;;;;;5070567;28;20446;-35
2023/08/28 03:30:34;;;;;;;2.53;1.40;;;20.10;75.10;;;;;;5059921;28;20076;-35
2023/08/28 03:33:01;;;;;;;3.63;1.30;;;20.80;86.10;;;;;;5050437;28;20073;-38
2023/08/28 03:35:28;;;;;;;1.65;1.40;;;19.70;85.40;;;;;;5050740;28;20153;-38
2023/08/28 03:37:54;;;;;;;1.52;1.30;;;19.70;75.70;;;;;;5067541;28;20083;-37
2023/08/28 03:40:21;;;;;;;1.63;1.30;;;19.50;85.10;;;;;;5069802;28;20127;-38
2023/08/28 03:42:49;;;;;;;3.20;1.38;;;19.70;67.80;;;;;;5070238;28;20623;-36
2023/08/28 03:45:16;;;;;;;1.48;1.30;;;;;;;;;;5070692;28;20139;-39
2023/08/28 03:47:43;;;;;;;2.90;1.40;;;19.30;82.20;;;;;;5070569;28;20127;-34
2023/08/28 03:50:10;;;;;;;1.40;1.30;;;20.30;68.10;;;;;;5064493;28;20128;-33
2023/08/28 03:52:37;;;;;;;2.40;1.40;;;19.70;70.50;;;;;;5050514;28;20124;-35
2023/08/28 03:55:04;;;;;;;1.90;1.48;;;19.80;82.10;;;;;;5050347;28;20127;-36
2023/08/28 03:57:34;;;;;;;4.43;1.50;;;;;;;;;;5051386;28;20152;-34
2023/08/28 04:00:05;;;;;;;1.45;1.20;;;18.70;80.10;;;;;;5069951;28;20044;-36
2023/08/28 04:02:32;;;;;;;1.60;1.27;;;19.90;85.60;;;;;;5070448;28;20048;-38
2023/08/28 04:05:02;;;;;;;1.92;1.40;;;;;;;;;;5070226;28;20131;-31
2023/08/28 04:07:29;;;;;;;2.22;1.30;;;;;;;;;;5070637;28;20048;-35
2023/08/28 04:09:56;;;;;;;2.20;1.65;;;;;;;;;;5065336;28;20446;-36
2023/08/28 04:12:23;;;;;;;2.08;1.55;;;;;;;;;;5052402;28;20482;-32
2023/08/28 04:14:51;;;;;;;2.75;1.20;;;;;;;;;;5054622;28;20120;-39
2023/08/28 04:17:19;;;;;;;1.50;1.30;;;19.70;67.80;;;;;;5053930;28;20135;-33
2023/08/28 04:19:47;;;;;;;4.30;1.85;;;19.70;67.90;;;;;;5057091;28;20079;-33
2023/08/28 04:22:14;;;;;;;1.70;1.25;;;19.30;74.20;;;;;;5074143;28;20052;-34
2023/08/28 04:24:41;;;;;;;2.55;1.60;;;;;;;;;;5074111;28;20588;-36
2023/08/28 04:27:08;;;;;;;1.35;1.25;;;;;;;;;;5074215;28;20565;-32
2023/08/28 04:29:35;;;;;;;1.60;1.27;;;19.40;85.80;;;;;;5072942;28;20131;-39
2023/08/28 04:32:03;;;;;;;2.38;1.30;;;;;;;;;;5054073;28;20083;-30
2023/08/28 04:34:31;;;;;;;1.75;1.42;;;19.70;67.90;;;;;;5053673;28;20413;-32
2023/08/28 04:36:58;;;;;;;1.55;1.30;;;;;;;;;;5063037;28;20135;-34
2023/08/28 04:39:25;;;;;;;2.17;1.40;;;20.00;85.90;;;;;;5073899;28;20127;-35
2023/08/28 04:41:52;;;;;;;2.22;1.50;;;19.60;85.30;;;;;;5073554;28;20131;-36
2023/08/28 04:44:19;;;;;;;1.52;1.30;;;;;;;;;;5073891;28;20056;-34
2023/08/28 04:46:47;;;;;;;1.65;1.40;;;19.20;85.50;;;;;;5073859;28;20128;-37
2023/08/28 04:49:14;;;;;;;2.05;1.40;;;19.40;85.60;;;;;;5073656;28;20509;-37
2023/08/28 04:51:44;;;;;;;1.63;1.40;;;19.40;68.90;;;;;;5054924;28;20134;-33
2023/08/28 04:54:11;;;;;;;1.83;1.40;;;19.50;67.80;;;;;;5058506;28;20076;-35
2023/08/28 04:56:38;;;;;;;1.90;1.50;;;;;;;;;;5073787;28;20048;-35
2023/08/28 04:59:05;;;;;;;2.45;1.40;;;19.60;67.80;;;;;;5073828;28;20135;-32
2023/08/28 05:01:32;;;;;;;1.60;1.40;;;;;;;;;;5073122;28;20110;-38
2023/08/28 05:03:59;;;;;;;2.05;1.38;;;19.40;72.10;;;;;;5073119;28;20056;-35
2023/08/28 05:06:26;;;;;;;1.52;1.38;;;;;;;;;;5070704;28;20066;-37
2023/08/28 05:08:55;;;;;;;2.53;1.50;;;19.50;68.80;;;;;;5062841;28;20131;-37
2023/08/28 05:11:21;;;;;;;1.92;1.38;;;19.50;75.60;;;;;;5073636;28;20144;-34
2023/08/28 05:13:48;;;;;;;3.65;1.50;;;19.70;73.40;;;;;;5073174;28;20131;-35
2023/08/28 05:16:15;;;;;;;3.08;1.40;;;19.70;85.00;;;;;;5072144;28;20132;-36
2023/08/28 05:18:41;;;;;;;1.55;1.40;;;19.90;73.60;;;;;;5053350;28;20128;-36
2023/08/28 05:21:08;;;;;;;1.60;1.30;;;20.30;85.40;;;;;;5053340;28;20136;-36
2023/08/28 05:23:35;;;;;;;2.92;1.45;;;20.90;85.60;;;;;;5055705;28;20123;-37
2023/08/28 05:26:03;;;;;;;2.35;1.70;;;20.30;67.90;;;;;;5062910;28;20450;-36
2023/08/28 05:28:31;;;;;;;2.17;1.30;;;;;;;;;;5061426;28;20140;-34
2023/08/28 05:30:58;;;;;;;2.05;1.38;;;;;;;;;;5062950;28;20078;-33
2023/08/28 05:33:25;;;;;;;1.67;1.30;;;;;;;;;;5061853;28;20574;-36
2023/08/28 05:35:52;;;;;;;1.35;1.20;;;;;;;;;;5062105;28;20621;-33
2023/08/28 05:38:19;;;;;;;2.20;1.42;;;21.10;80.70;;;;;;5059366;28;20123;-35
2023/08/28 05:40:46;;;;;;;1.95;1.20;;;19.90;74.70;;;;;;5062614;28;20131;-38
2023/08/28 05:43:14;;;;;;;2.45;1.40;;;20.80;66.50;;;;;;5062796;28;20135;-37
2023/08/28 05:45:41;;;;;;;1.30;1.20;;;;;;;;;;5061768;28;20144;-32
2023/08/28 05:48:08;;;;;;;2.05;1.20;;;;;;;;;;5059884;28;20082;-33
2023/08/28 05:50:36;;;;;;;1.50;1.40;;;21.00;79.20;;;;;;5061291;28;20131;-38
2023/08/28 05:53:04;;;;;;;1.30;1.20;;;21.00;83.90;;;;;;5061121;28;20052;-39
2023/08/28 05:55:31;;;;;;;1.95;1.30;;;21.30;80.70;;;;;;5062102;28;20048;-36
2023/08/28 05:57:58;;;;;;;1.40;1.23;;;21.20;78.40;;;;;;5060621;28;20114;-37
2023/08/28 06:00:27;;;;;;;1.35;1.20;;;21.20;66.00;;;;;;5061590;28;20052;-34
2023/08/28 06:02:53;;;;;;;2.28;1.42;;;21.00;83.40;;;;;;5061404;28;20052;-36
2023/08/28 06:05:20;;;;;;;2.55;1.30;;;;;;;;;;5062584;28;20135;-36
2023/08/28 06:07:47;;;;;;;1.17;1.08;;;21.40;83.00;;;;;;5059548;28;20041;-37
2023/08/28 06:10:17;;;;;;;1.35;1.20;;;21.60;81.20;;;;;;5061513;28;20127;-36
2023/08/28 06:12:44;;;;;;;1.55;1.17;;;21.10;82.10;;;;;;5061189;28;20049;-35
2023/08/28 06:15:12;;;;;;;2.90;1.30;;;20.90;65.30;;;;;;5061516;28;20072;-37
2023/08/28 06:17:40;;;;;;;1.35;1.10;;;20.30;82.10;;;;;;5060623;28;20045;-38
2023/08/28 06:20:09;;;;;;;1.13;1.00;;;21.50;65.60;;;;;;5061791;28;20132;-36
2023/08/28 06:22:36;;;;;;;2.35;1.20;;;21.30;82.20;;;;;;5060363;28;20063;-37
2023/08/28 06:25:04;;;;;;;1.40;1.30;;;;;;;;;;5052017;28;20144;-34
2023/08/28 06:27:30;;;;;;;1.38;1.23;;;22.80;83.20;;;;;;5051475;28;20073;-38
2023/08/28 06:29:57;;;;;;;1.42;1.17;;;21.70;69.30;;;;;;5051335;28;20123;-36
2023/08/28 06:32:24;;;;;;;1.60;1.20;;;21.60;75.00;;;;;;5056946;28;20147;-38
2023/08/28 06:34:52;;;;;;;2.35;1.38;;;20.80;82.30;;;;;;5066684;28;20049;-39
2023/08/28 06:37:19;;;;;;;1.70;1.17;;;21.80;82.40;;;;;;5067072;28;20045;-36
2023/08/28 06:39:45;;;;;;;1.73;1.23;;;20.70;68.60;;;;;;5062476;28;20084;-36
2023/08/28 06:42:12;;;;;;;1.58;1.20;;;21.60;73.20;;;;;;5060379;28;20045;-36
2023/08/28 06:44:39;;;;;;;1.63;1.17;;;21.20;73.40;;;;;;5061124;28;20498;-40
2023/08/28 06:47:06;;;;;;;1.38;1.20;;;;;;;;;;5061456;28;20127;-36
2023/08/28 06:49:33;;;;;;;1.25;1.10;;;21.70;81.80;;;;;;5062943;28;20625;-37
2023/08/28 06:52:01;;;;;;;1.83;1.40;;;19.50;64.00;;;;;;5054937;28;20053;-35
2023/08/28 06:54:28;;;;;;;1.30;1.10;;;21.70;81.90;;;;;;5051149;28;20474;-35
2023/08/28 06:56:54;;;;;;;1.60;1.30;;;21.80;67.60;;;;;;5051715;28;20124;-35
2023/08/28 06:59:21;;;;;;;1.20;1.00;;;;;;;;;;5051356;28;20565;-37
2023/08/28 07:01:48;;;;;;;2.17;1.17;;;21.20;81.70;;;;;;5051378;28;20610;-39
2023/08/28 07:04:15;;;;;;;1.27;1.13;;;;;;;;;;5051339;28;20131;-35
2023/08/28 07:06:42;;;;;;;1.13;1.02;;;21.50;82.10;;;;;;5056660;28;20076;-38
2023/08/28 07:09:10;;;;;;;1.35;1.00;;;21.70;64.90;;;;;;5064990;28;20132;-32
2023/08/28 07:11:37;;;;;;;1.70;1.10;;;21.70;64.90;;;;;;5063812;28;20131;-34
2023/08/28 07:14:06;;;;;;;1.58;1.17;;;22.40;82.40;;;;;;5051141;28;20131;-39
2023/08/28 07:16:33;;;;;;;1.20;1.10;;;22.90;82.20;;;;;;5057968;28;20078;-37
2023/08/28 07:19:00;;;;;;;1.50;1.20;;;;;;;;;;5059685;28;20048;-37
2023/08/28 07:21:27;;;;;;;1.67;1.10;;;21.10;67.70;;;;;;5061245;28;20128;-38
2023/08/28 07:23:54;;;;;;;1.52;1.02;;;21.60;74.00;;;;;;5061086;28;20443;-37
2023/08/28 07:26:22;;;;;;;2.80;1.00;;;21.00;81.70;;;;;;5059372;28;20060;-39
2023/08/28 07:28:49;;;;;;;1.85;1.10;;;21.70;81.80;;;;;;5059694;28;20123;-38
2023/08/28 07:31:16;;;;;;;1.27;1.00;;;21.40;77.80;;;;;;5052865;28;20494;-36
2023/08/28 07:33:42;;;;;;;2.55;1.23;;;20.80;81.40;;;;;;5050710;28;20471;-36
2023/08/28 07:36:09;;;;;;;1.52;1.05;;;21.70;82.10;;;;;;5052888;28;20136;-38
2023/08/28 07:38:36;;;;;;;1.00;0.90;;;22.80;76.60;;;;;;5070937;28;20072;-37
2023/08/28 07:41:03;;;;;;;1.15;1.05;;;21.50;82.30;;;;;;5067546;28;20243;-35
2023/08/28 07:43:31;;;;;;;1.10;1.00;;;21.60;65.10;;;;;;5058181;28;20056;-34
2023/08/28 07:45:58;;;;;;;1.20;1.10;;;;;;;;;;5056689;28;20128;-33
2023/08/28 07:48:25;;;;;;;1.80;1.20;;;22.80;82.50;;;;;;5060895;28;20124;-39
2023/08/28 07:50:52;;;;;;;1.50;1.00;;;;;;;;;;5070833;28;20128;-35
2023/08/28 07:53:18;;;;;;;0.90;0.90;;;22.60;82.70;;;;;;5069621;28;20135;-35
2023/08/28 07:55:45;;;;;;;1.10;1.00;;;22.50;73.80;;;;;;5070880;28;20084;-37
2023/08/28 07:58:13;;;;;;;1.10;1.00;;;;;;;;;;5070645;28;20140;-34
2023/08/28 08:00:42;;;;;;;1.20;1.10;;;21.60;82.00;;;;;;5057125;28;20152;-37
2023/08/28 08:03:09;;;;;;;1.50;1.20;;;21.50;82.30;;;;;;5050398;28;20053;-36
2023/08/28 08:05:36;;;;;;;1.63;1.13;;;21.40;79.40;;;;;;5051061;28;20076;-35
2023/08/28 08:08:03;;;;;;;1.50;1.08;;;;;;;;;;5050619;28;20128;-33
2023/08/28 08:10:30;;;;;;;1.70;1.25;;;21.10;68.90;;;;;;5055685;28;20057;-35
2023/08/28 08:12:57;;;;;;;2.55;1.20;;;;;;;;;;5050073;28;20055;-33
2023/08/28 08:15:24;;;;;;;1.38;1.20;;;21.30;73.70;;;;;;5058169;28;20521;-39
2023/08/28 08:17:52;;;;;;;1.98;1.25;;;21.20;82.50;;;;;;5053373;28;20132;-37
2023/08/28 08:20:20;;;;;;;2.33;1.40;;;;;;;;;;5050347;28;20676;-36
2023/08/28 08:22:47;;;;;;;1.83;1.23;;;21.00;82.50;;;;;;5059820;28;20425;-36
2023/08/28 08:25:14;;;;;;;4.15;1.30;;;20.90;78.80;;;;;;5059409;28;20418;-39
2023/08/28 08:27:44;;;;;;;3.58;1.33;;;;;;;;;;5051943;28;20128;-35
2023/08/28 08:30:13;;;;;;;1.98;1.20;;;21.10;67.30;;;;;;5050651;28;20049;-37
2023/08/28 08:32:40;;;;;;;1.35;1.08;;;21.00;82.60;;;;;;5049770;28;20055;-37
2023/08/28 08:35:09;;;;;;;1.85;1.30;;;21.00;82.30;;;;;;5055443;28;20204;-36
2023/08/28 08:37:36;;;;;;;1.38;1.10;;;21.30;82.30;;;;;;5062449;28;20048;-36
2023/08/28 08:40:03;;;;;;;2.47;1.02;;;21.10;74.40;;;;;;5062488;28;20451;-39
2023/08/28 08:42:30;;;;;;;1.70;1.20;;;21.30;82.50;;;;;;5057531;28;20052;-30
2023/08/28 08:44:57;;;;;;;2.72;1.05;;;;;;;;;;5058665;28;20655;-31
2023/08/28 08:47:24;;;;;;;2.13;1.10;;;20.90;74.60;;;;;;5050080;28;20135;-31
2023/08/28 08:49:53;;;;;;;1.90;1.00;;;21.40;65.60;;;;;;5049682;28;20120;-32
2023/08/28 08:52:21;;;;;;;2.97;1.15;;;21.40;65.60;;;;;;5049161;28;20549;-35
2023/08/28 08:54:48;;;;;;;1.27;1.05;;;;;;;;;;5049414;28;20128;-31
2023/08/28 08:57:20;;;;;;;1.67;1.10;;;21.50;65.50;;;;;;5049140;28;20120;-30
2023/08/28 08:59:47;;;;;;;2.38;1.02;;;;;;;;;;5052573;28;20128;-30
2023/08/28 09:02:13;;;;;;;2.05;1.13;;;21.30;82.10;;;;;;5053359;28;20395;-30
2023/08/28 09:04:41;;;;;;;1.48;1.00;;;21.60;65.40;;;;;;5053457;28;20131;-35
2023/08/28 09:07:08;;;;;;;0.98;0.90;;;;;;;;;;5052878;28;20128;-30
2023/08/28 09:09:36;;;;;;;2.28;1.15;;;21.30;76.60;;;;;;5053633;28;20128;-31
2023/08/28 09:12:03;;;;;;;1.40;1.02;;;;;;;;;;5053449;28;20136;-34
2023/08/28 09:14:31;;;;;;;1.23;1.00;;;21.40;65.80;;;;;;5053551;28;20048;-31
2023/08/28 09:16:58;;;;;;;2.45;0.90;;;;;;;;;;5053587;28;20049;-31
2023/08/28 09:19:25;;;;;;;1.13;1.00;;;22.60;82.80;;;;;;5056130;28;20128;-30
2023/08/28 09:21:52;;;;;;;1.63;1.00;;;;;;;;;;5063848;28;20055;-31
2023/08/28 09:24:23;;;;;;;1.65;1.10;;;21.80;64.80;;;;;;5069054;28;20123;-32
2023/08/28 09:26:53;;;;;;;2.00;0.98;;;21.40;81.80;;;;;;5060541;28;20131;-31
2023/08/28 09:29:24;;;;;;;1.27;0.98;;;21.80;64.70;;;;;;5057977;28;20106;-32
2023/08/28 09:31:51;;;;;;;1.10;0.98;;;21.00;81.00;;;;;;5060346;28;20051;-30
2023/08/28 09:34:19;;;;;;;1.35;1.10;;;21.90;81.20;;;;;;5063035;28;20096;-30
2023/08/28 09:36:45;;;;;;;1.73;0.90;;;21.90;69.40;;;;;;5068301;28;20454;-31
2023/08/28 09:39:12;;;;;;;1.20;1.00;;;21.80;81.70;;;;;;5067244;28;20124;-30
2023/08/28 09:41:43;;;;;;;1.05;0.82;;;21.80;64.80;;;;;;5072447;28;20060;-35
2023/08/28 09:44:12;;;;;;;1.30;0.93;;;21.80;81.50;;;;;;5065348;28;20045;-30
2023/08/28 09:46:38;;;;;;;1.65;0.90;;;21.60;82.00;;;;;;5065145;28;20127;-30
2023/08/28 09:49:05;;;;;;;1.67;1.00;;;22.90;82.00;;;;;;5061527;28;20804;-30
2023/08/28 09:51:40;;;;;;;1.02;0.80;;;21.80;64.70;;;;;;5072917;28;20128;-31
2023/08/28 09:54:06;;;;;;;2.35;1.23;;;21.90;81.60;;;;;;5055425;28;20056;-37
2023/08/28 09:56:33;;;;;;;0.88;0.85;;;21.70;81.40;;;;;;5070073;28;20131;-36
2023/08/28 09:59:01;;;;;;;1.48;1.00;;;22.00;64.60;;;;;;5060491;28;20068;-34
2023/08/28 10:01:30;;;;;;;1.13;0.90;;;22.10;81.00;;;;;;5052811;28;20136;-38
2023/08/28 10:03:57;;;;;;;1.10;1.00;;;21.60;80.60;;;;;;5052138;28;20132;-39
2023/08/28 10:06:24;;;;;;;1.98;1.30;;;;;;;;;;5052432;28;20128;-33
2023/08/28 10:08:51;;;;;;;4.88;1.02;;;22.40;81.20;;;;;;5066269;28;20051;-35
2023/08/28 10:11:18;;;;;;;1.08;0.90;;;;;;;;;;5052349;28;20593;-33
2023/08/28 10:13:45;;;;;;;1.13;0.95;;;22.00;80.80;;;;;;5052381;28;20076;-35
2023/08/28 10:16:12;;;;;;;1.42;1.13;;;22.30;68.10;;;;;;5064050;28;20057;-34
2023/08/28 10:18:41;;;;;;;1.35;1.02;;;21.80;81.00;;;;;;5058625;28;20076;-35
2023/08/28 10:21:08;;;;;;;1.92;1.10;;;21.70;81.30;;;;;;5055252;28;20135;-37
2023/08/28 10:23:35;;;;;;;1.15;0.90;;;;;;;;;;5061707;28;20083;-35
2023/08/28 10:26:02;;;;;;;1.75;1.08;;;22.40;73.40;;;;;;5061317;28;20557;-35
2023/08/28 10:28:29;;;;;;;1.42;1.00;;;21.80;67.50;;;;;;5064923;28;20098;-36
2023/08/28 10:30:57;;;;;;;2.03;0.88;;;;;;;;;;5060012;28;20123;-36
2023/08/28 10:33:24;;;;;;;1.63;1.00;;;22.40;81.90;;;;;;5063635;28;20481;-36
2023/08/28 10:35:53;;;;;;;1.75;1.20;;;22.30;68.30;;;;;;5064266;28;20132;-35
2023/08/28 10:38:20;;;;;;;1.30;1.00;;;22.10;64.40;;;;;;5071873;28;20127;-36
2023/08/28 10:40:46;;;;;;;1.95;1.10;;;21.60;81.50;;;;;;5071800;28;20144;-37
2023/08/28 10:43:13;;;;;;;1.40;0.90;;;21.50;80.90;;;;;;5071210;28;20076;-38
2023/08/28 10:45:39;;;;;;;2.38;1.10;;;21.80;69.50;;;;;;5071851;28;20127;-35
2023/08/28 10:48:07;;;;;;;2.20;1.00;;;22.60;81.20;;;;;;5071738;28;20123;-36
2023/08/28 10:50:36;;;;;;;1.67;0.98;;;22.20;68.30;;;;;;5063410;28;20132;-35
2023/08/28 10:53:05;;;;;;;2.17;1.20;;;22.20;64.50;;;;;;5065620;28;20053;-38
2023/08/28 10:55:32;;;;;;;4.35;1.05;;;;;;;;;;5071857;28;20080;-32
2023/08/28 10:58:01;;;;;;;3.15;1.02;;;21.60;80.80;;;;;;5071303;28;20132;-35
2023/08/28 11:00:28;;;;;;;1.23;0.90;;;22.80;67.00;;;;;;5070500;28;20049;-35
2023/08/28 11:03:08;;;;;;;1.92;1.10;;;21.80;80.80;;;;;;5071288;28;20071;-35
2023/08/28 11:05:35;;;;;;;1.98;1.10;;;;;;;;;;5071462;28;20510;-36
2023/08/28 11:08:04;;;;;;;2.58;1.10;;;;;;;;;;5071235;28;20123;-33
2023/08/28 11:10:32;;;;;;;1.23;0.88;;;22.50;76.30;;;;;;5059468;28;20051;-39
2023/08/28 11:13:01;;;;;;;1.67;1.08;;;22.20;64.30;;;;;;5051827;28;20119;-33
2023/08/28 11:15:29;;;;;;;1.52;1.08;;;22.30;64.30;;;;;;5060019;28;20147;-34
2023/08/28 11:18:27;;;;;;;2.08;1.20;;;22.30;64.30;;;;;;5050724;28;20566;-32
2023/08/28 11:20:54;;;;;;;2.60;1.13;;;22.70;65.20;;;;;;5030654;28;20390;-35
2023/08/28 11:23:24;;;;;;;3.92;1.35;;;22.20;65.00;;;;;;5070569;28;20195;-34
2023/08/28 11:25:52;;;;;;;5.20;1.40;;;22.00;80.60;;;;;;5071004;28;20565;-35
2023/08/28 11:28:30;;;;;;;4.55;1.70;;;21.80;70.80;;;;;;5065630;28;20131;-35
2023/08/28 11:31:04;;;;;;;3.45;1.35;;;22.10;64.60;;;;;;5065078;28;20465;-34
2023/08/28 11:33:41;;;;;;;2.33;1.30;;;22.10;64.60;;;;;;5069341;28;20127;-35
2023/08/28 11:36:09;;;;;;;4.60;1.95;;;22.00;64.60;;;;;;5063259;28;20053;-31
2023/08/28 11:38:37;;;;;;;3.95;1.60;;;;;;;;;;5069793;28;20048;-35
2023/08/28 11:41:07;;;;;;;5.18;1.60;;;21.60;78.50;;;;;;5069132;28;20131;-34
2023/08/28 11:43:35;;;;;;;5.53;1.45;;;22.10;80.40;;;;;;5069560;28;20055;-35
2023/08/28 11:46:03;;;;;;;2.90;1.50;;;21.90;81.70;;;;;;5070226;28;20072;-35
2023/08/28 11:48:33;;;;;;;6.47;1.80;;;21.90;65.00;;;;;;5071060;28;20045;-37
2023/08/28 11:51:01;;;;;;;5.03;1.77;;;21.80;73.20;;;;;;5062915;28;20492;-38
2023/08/28 11:53:31;;;;;;;3.38;1.80;;;21.70;66.30;;;;;;5070275;28;20045;-34
2023/08/28 11:56:00;;;;;;;6.65;1.90;;;21.90;65.10;;;;;;5070986;28;20132;-32
2023/08/28 11:58:28;;;;;;;3.80;1.73;;;22.00;65.10;;;;;;5070495;28;20136;-35
2023/08/28 12:00:55;;;;;;;4.53;1.70;;;;;;;;;;5070579;28;20128;-34
2023/08/28 12:03:22;;;;;;;8.15;2.20;;;23.00;77.50;;;;;;5064270;28;20069;-35
2023/08/28 12:05:49;;;;;;;8.68;2.22;;;21.10;80.80;;;;;;5050767;28;20128;-35
2023/08/28 12:08:15;;;;;;;6.43;1.98;;;22.50;81.80;;;;;;5050917;28;20124;-33
2023/08/28 12:10:43;;;;;;;7.55;2.33;;;;;;;;;;5050530;28;20128;-36
2023/08/28 12:13:09;;;;;;;5.22;1.73;;;22.10;81.10;;;;;;5050149;28;20076;-36
2023/08/28 12:15:38;;;;;;;6.57;1.98;;;22.10;72.20;;;;;;5051548;28;20076;-35
2023/08/28 12:18:06;;;;;;;6.22;1.80;;;22.20;64.60;;;;;;5050031;28;20131;-36
2023/08/28 12:20:33;;;;;;;6.10;2.08;;;22.20;71.70;;;;;;5067918;28;20049;-34
2023/08/28 12:23:00;;;;;;;6.93;1.85;;;;;;;;;;5070105;28;20545;-35
2023/08/28 12:25:34;;;;;;;4.45;1.77;;;22.00;70.00;;;;;;5069047;28;20080;-33
2023/08/28 12:28:07;;;;;;;3.33;1.65;;;22.70;64.70;;;;;;5070355;28;20088;-33
2023/08/28 12:30:35;;;;;;;6.35;2.38;;;;;;;;;;5070325;28;20129;-37
2023/08/28 12:33:04;;;;;;;4.55;2.00;;;22.60;77.80;;;;;;5057761;28;20128;-37
2023/08/28 12:35:36;;;;;;;5.28;1.70;;;22.30;71.80;;;;;;5054332;28;20055;-38
2023/08/28 12:38:04;;;;;;;5.30;2.08;;;;;;;;;;5057500;28;20124;-38
2023/08/28 12:40:35;;;;;;;5.13;2.10;;;22.50;64.40;;;;;;5065125;28;20094;-36
2023/08/28 12:43:03;;;;;;;3.80;1.40;;;;;;;;;;5062397;28;20049;-36
2023/08/28 12:45:32;;;;;;;4.60;1.70;;;22.70;81.50;;;;;;5063914;28;20485;-38
2023/08/28 12:47:58;;;;;;;6.63;1.60;;;22.10;67.80;;;;;;5061042;28;20044;-36
2023/08/28 12:50:26;;;;;;;3.75;1.60;;;22.20;65.50;;;;;;5054185;28;20124;-38
2023/08/28 12:52:54;;;;;;;5.35;1.67;;;;;;;;;;5073181;28;20573;-36
2023/08/28 12:55:20;;;;;;;3.22;1.50;;;22.30;80.60;;;;;;5073992;28;20466;-35
2023/08/28 12:57:47;;;;;;;5.43;1.80;;;;;;;;;;5073993;28;20132;-34
2023/08/28 13:00:16;;;;;;;2.70;1.33;;;22.00;80.70;;;;;;5073829;28;20440;-34
2023/08/28 13:02:44;;;;;;;4.07;1.60;;;23.50;81.60;;;;;;5073638;28;20052;-36
2023/08/28 13:05:11;;;;;;;4.88;1.80;;;22.30;80.80;;;;;;5064728;28;20573;-38
2023/08/28 13:07:39;;;;;;;3.85;1.60;;;22.50;76.30;;;;;;5053349;28;20056;-36
2023/08/28 13:10:08;;;;;;;2.30;1.35;;;22.30;78.10;;;;;;5053839;28;20110;-36
2023/08/28 13:12:34;;;;;;;3.75;1.60;;;22.20;81.20;;;;;;5053562;28;20056;-36
2023/08/28 13:15:04;;;;;;;4.68;1.50;;;;;;;;;;5053662;28;20136;-35
2023/08/28 13:17:31;;;;;;;3.67;1.58;;;22.30;80.60;;;;;;5053585;28;20044;-39
2023/08/28 13:19:58;;;;;;;3.10;1.40;;;;;;;;;;5068434;28;20577;-34